Latest Coastal Weather Observations for Redcliffe

IDQ60701

Issued at 9:12 am EST Sunday 23 February 2020 (issued every 10 minutes, with the page automatically refreshed every 10 minutes)

About coastal observations | Map of coastal stations | Coastal observations for QLD | Marine services | Other Formats
Station Details ID: 040958 Name: REDCLIFFE Lat: -27.22 Lon: 153.09 Height: 12.6 m
Data from the previous 72 hours. | See also: Recent months at Redcliffe
Date/Time
EST
Wind Sea
Height
m
Swell Vis
km
Cloud Weather Temp
°C
Press
hPa
Rain since
9am
mm
Dir  Spd
kts
Gust
kts
Height
m
Period
s
Dir
23/09:00am S 14 17 - - - - - - - 24.9 1020.5 1.8
23/08:30am S 11 15 - - - - - - - 25.4 1020.2 1.8
23/08:00am S 14 19 - - - - - - - 24.0 1020.0 1.8
23/07:30am SE 17 21 - - - - - - - 23.2 1020.0 1.8
23/07:00am S 15 18 - - - - - - - 22.8 1019.8 1.8
23/06:30am S 15 18 - - - - - - - 22.5 1019.5 1.8
23/06:00am S 15 18 - - - - - - - 22.0 1019.2 1.8
23/05:30am S 13 16 - - - - - - - 21.8 1018.6 1.8
23/05:00am S 14 17 - - - - - - - 22.2 1018.6 1.8
23/04:30am S 17 20 - - - - - - - 22.5 1018.4 1.8
23/04:00am SSE 16 20 - - - - - - - 22.6 1018.2 1.8
23/03:30am SE 19 21 - - - - - - - 22.2 1018.2 1.8
23/03:00am S 13 21 - - - - - - - 22.2 1018.5 1.8
23/02:30am S 17 20 - - - - - - - 22.8 1018.5 1.8
23/02:00am SSE 19 22 - - - - - - - 23.8 1018.6 1.8
23/01:30am SE 16 20 - - - - - - - 23.0 1018.8 1.8
23/01:14am SE 19 29 - - - - - - - 23.1 1018.9 1.4
23/01:00am ESE 21 27 - - - - - - - 22.5 1019.4 1.4
23/12:30am SE 19 23 - - - - - - - 25.6 1019.3 0.0
23/12:00am SE 20 25 - - - - - - - 25.7 1019.7 0.0
 
Date/Time
EST
Wind Sea
Height
m
Swell Vis
km
Cloud Weather Temp
°C
Press
hPa
Rain since
9am
mm
Dir  Spd
kts
Gust
kts
Height
m
Period
s
Dir
22/11:30pm SE 20 25 - - - - - - - 25.7 1019.7 0.0
22/11:00pm ESE 20 26 - - - - - - - 25.6 1020.0 0.0
22/10:30pm SE 23 28 - - - - - - - 25.6 1019.6 0.0
22/10:00pm SE 23 28 - - - - - - - 25.7 1019.4 0.0
22/09:30pm SE 22 27 - - - - - - - 25.7 1019.3 0.0
22/09:00pm SE 22 27 - - - - - - - 25.7 1019.1 0.0
22/08:30pm SE 22 27 - - - - - - - 25.7 1018.9 0.0
22/08:00pm SE 21 26 - - - - - - - 25.7 1018.8 0.0
22/07:30pm SE 21 26 - - - - - - - 25.5 1018.5 0.0
22/07:00pm SE 23 27 - - - - - - - 25.6 1017.8 0.0
22/06:30pm SE 21 25 - - - - - - - 25.5 1017.7 0.0
22/06:00pm SE 21 24 - - - - - - - 25.4 1018.1 0.0
22/05:30pm SE 22 27 - - - - - - - 25.8 1017.6 0.0
22/05:00pm SE 22 27 - - - - - - - 26.0 1017.6 0.0
22/04:30pm SE 21 26 - - - - - - - 26.3 1017.8 0.0
22/04:00pm SE 21 27 - - - - - - - 26.6 1017.7 0.0
22/03:30pm SE 20 25 - - - - - - - 26.4 1017.7 0.0
22/03:00pm SE 23 26 - - - - - - - 26.6 1017.8 0.0
22/02:30pm SE 21 25 - - - - - - - 27.2 1017.9 0.0
22/02:00pm SE 22 28 - - - - - - - 26.6 1018.3 0.0
22/01:30pm SE 22 26 - - - - - - - 26.1 1018.4 0.0
22/01:00pm SE 20 25 - - - - - - - 26.4 1019.0 0.0
22/12:30pm SE 25 28 - - - - - - - 24.8 1019.1 0.0
22/12:07pm SE 19 27 - - - - - - - 27.5 1018.9 0.0
22/12:00pm ESE 17 20 - - - - - - - 28.4 1018.9 0.0
22/11:30am ESE 15 18 - - - - - - - 27.9 1019.4 0.0
22/11:00am SE 18 21 - - - - - - - 27.3 1019.3 0.0
22/10:30am ESE 14 18 - - - - - - - 26.1 1019.7 0.0
22/10:00am ESE 15 16 - - - - - - - 27.6 1019.6 0.0
22/09:30am ESE 14 16 - - - - - - - 27.9 1019.5 0.0
22/09:00am ESE 15 17 - - - - - - - 27.6 1019.4 0.0
22/08:30am ESE 15 16 - - - - - - - 27.4 1019.1 0.0
22/08:00am SE 15 18 - - - - - - - 26.8 1018.9 0.0
22/07:30am SE 15 19 - - - - - - - 26.6 1018.6 0.0
22/07:00am SE 14 17 - - - - - - - 26.1 1018.4 0.0
22/06:30am SE 13 17 - - - - - - - 25.9 1017.9 0.0
22/06:00am SE 13 17 - - - - - - - 25.6 1017.4 0.0
22/05:30am SE 12 16 - - - - - - - 25.6 1017.3 0.0
22/05:00am ESE 13 15 - - - - - - - 25.3 1017.0 0.0
22/04:30am ESE 13 16 - - - - - - - 25.2 1016.5 0.0
22/04:00am ESE 13 17 - - - - - - - 25.3 1016.3 0.0
22/03:30am ESE 15 20 - - - - - - - 25.4 1016.0 0.0
22/03:00am ESE 17 19 - - - - - - - 25.5 1015.9 0.0
22/02:30am ESE 15 17 - - - - - - - 25.6 1015.7 0.0
22/02:00am ESE 15 18 - - - - - - - 25.5 1015.9 0.0
22/01:30am ESE 14 17 - - - - - - - 25.8 1016.1 0.0
22/01:00am ESE 14 17 - - - - - - - 25.8 1016.4 0.0
22/12:30am ESE 15 18 - - - - - - - 25.7 1016.4 0.0
22/12:00am ESE 15 18 - - - - - - - 25.9 1016.3 0.0
 
Date/Time
EST
Wind Sea
Height
m
Swell Vis
km
Cloud Weather Temp
°C
Press
hPa
Rain since
9am
mm
Dir  Spd
kts
Gust
kts
Height
m
Period
s
Dir
21/11:30pm ESE 14 17 - - - - - - - 26.0 1016.6 0.0
21/11:00pm ESE 13 16 - - - - - - - 26.0 1016.6 0.0
21/10:30pm ESE 15 16 - - - - - - - 25.6 1016.5 0.0
21/10:00pm ESE 13 16 - - - - - - - 26.2 1016.6 0.0
21/09:30pm ESE 15 17 - - - - - - - 26.1 1016.4 0.0
21/09:00pm E 15 17 - - - - - - - 25.9 1015.9 0.0
21/08:30pm E 16 19 - - - - - - - 26.2 1015.6 0.0
21/08:00pm ESE 17 20 - - - - - - - 26.4 1015.4 0.0
21/07:30pm E 18 21 - - - - - - - 26.5 1014.9 0.0
21/07:00pm ESE 17 21 - - - - - - - 26.4 1014.2 0.0
21/06:30pm E 17 20 - - - - - - - 26.4 1014.1 0.0
21/06:00pm E 16 19 - - - - - - - 26.8 1013.9 0.0
21/05:30pm E 15 17 - - - - - - - 26.8 1013.4 0.0
21/05:00pm E 14 17 - - - - - - - 27.0 1013.0 0.0
21/04:30pm E 15 17 - - - - - - - 27.6 1012.7 0.0
21/04:00pm ESE 16 18 - - - - - - - 27.9 1012.4 0.0
21/03:30pm E 14 17 - - - - - - - 27.8 1012.6 0.0
21/03:00pm ESE 15 17 - - - - - - - 27.8 1012.9 0.0
21/02:30pm E 14 17 - - - - - - - 28.0 1013.1 0.0
21/02:00pm ESE 15 17 - - - - - - - 28.1 1013.4 0.0
21/01:30pm ESE 15 18 - - - - - - - 27.8 1013.5 0.0
21/01:00pm SE 15 19 - - - - - - - 27.9 1013.8 0.0
21/12:30pm ESE 15 18 - - - - - - - 27.6 1014.1 0.0
21/12:00pm ESE 15 17 - - - - - - - 27.8 1014.2 0.0
21/11:30am ESE 15 18 - - - - - - - 27.9 1014.3 0.0
21/11:00am SE 14 16 - - - - - - - 27.3 1014.5 0.0
21/10:30am SSE 15 18 - - - - - - - 27.8 1014.5 0.0
21/10:00am SSE 16 17 - - - - - - - 27.2 1014.5 0.0
21/09:30am SSE 15 17 - - - - - - - 27.6 1014.7 0.0
21/09:00am SSE 15 17 - - - - - - - 27.2 1014.4 0.0
21/08:30am SSE 13 16 - - - - - - - 27.0 1013.9 0.0
21/08:00am S 10 15 - - - - - - - 26.4 1013.8 0.0
21/07:30am S 8 11 - - - - - - - 26.7 1013.6 0.0
21/07:00am E 8 10 - - - - - - - 25.6 1013.3 0.0
21/06:30am E 8 10 - - - - - - - 24.8 1013.0 0.0
21/06:00am E 8 10 - - - - - - - 24.3 1012.6 0.0
21/05:30am E 10 11 - - - - - - - 24.2 1012.1 0.0
21/05:00am E 10 13 - - - - - - - 25.4 1011.9 0.0
21/04:30am E 11 14 - - - - - - - 26.1 1011.3 0.0
21/04:00am E 11 14 - - - - - - - 26.1 1011.2 0.0
21/03:30am E 10 13 - - - - - - - 25.9 1010.8 0.0
21/03:00am ESE 11 14 - - - - - - - 26.2 1010.8 0.0
21/02:30am ESE 12 15 - - - - - - - 25.0 1010.9 0.0
21/02:00am ESE 12 15 - - - - - - - 26.3 1011.0 0.0
21/01:30am ESE 13 15 - - - - - - - 26.5 1011.1 0.0
21/01:00am ESE 14 16 - - - - - - - 26.7 1011.5 0.0
21/12:30am ESE 14 17 - - - - - - - 26.6 1011.8 0.0
21/12:00am ESE 15 18 - - - - - - - 26.7 1011.8 0.0
 
Date/Time
EST
Wind Sea
Height
m
Swell Vis
km
Cloud Weather Temp
°C
Press
hPa
Rain since
9am
mm
Dir  Spd
kts
Gust
kts
Height
m
Period
s
Dir
20/11:30pm SE 15 17 - - - - - - - 26.8 1012.1 0.0
20/11:00pm SE 15 17 - - - - - - - 27.0 1012.0 0.0
20/10:30pm ESE 15 18 - - - - - - - 27.0 1012.1 0.0
20/10:00pm ESE 14 17 - - - - - - - 27.0 1011.9 0.0
20/09:30pm ESE 15 18 - - - - - - - 27.1 1011.6 0.0
20/09:00pm ESE 16 19 - - - - - - - 27.0 1011.2 0.0
20/08:30pm ESE 16 19 - - - - - - - 27.1 1010.8 0.0
20/08:00pm ESE 16 18 - - - - - - - 27.0 1010.5 0.0
20/07:30pm ESE 15 17 - - - - - - - 27.0 1010.0 0.0
20/07:00pm ESE 15 17 - - - - - - - 27.2 1009.5 0.0
20/06:30pm ESE 16 17 - - - - - - - 27.3 1009.0 0.0
20/06:00pm ESE 16 18 - - - - - - - 27.6 1008.6 0.0
20/05:30pm ESE 15 17 - - - - - - - 28.0 1008.0 0.0
20/05:00pm E 15 17 - - - - - - - 28.4 1007.6 0.0
20/04:30pm ESE 15 18 - - - - - - - 28.5 1007.2 0.0
20/04:00pm ESE 15 17 - - - - - - - 28.8 1007.0 0.0
20/03:30pm ESE 14 15 - - - - - - - 29.4 1006.9 0.0
20/03:00pm ESE 14 16 - - - - - - - 29.2 1006.8 0.0
20/02:30pm ESE 11 14 - - - - - - - 29.6 1006.9 0.0
20/02:00pm ESE 11 14 - - - - - - - 29.9 1007.0 0.0
20/01:30pm ESE 13 15 - - - - - - - 29.6 1007.3 0.0
20/01:00pm ESE 12 14 - - - - - - - 29.7 1007.5 0.0
20/12:30pm SE 12 15 - - - - - - - 29.5 1007.6 0.0
20/12:00pm SE 13 15 - - - - - - - 29.5 1007.8 0.0
20/11:30am SE 13 15 - - - - - - - 29.2 1008.1 0.0
20/11:00am SSE 13 15 - - - - - - - 29.0 1008.4 0.0
20/10:30am SSE 12 15 - - - - - - - 29.4 1008.5 0.0
20/10:00am SSE 13 15 - - - - - - - 28.9 1008.5 0.0
20/09:30am SSE 14 16 - - - - - - - 28.5 1008.4 0.0

Other formats

Comma delimited format used in spreadsheet applications
http://www.bom.gov.au/fwo/IDQ60701/IDQ60701.95591.axf

JavaScript Object Notation format (JSON) in row-major order
http://www.bom.gov.au/fwo/IDQ60701/IDQ60701.95591.json

Data quality

Most of these data are generated automatically and are frequently updated. Quality checks on data are not normally performed. It is possible for incorrect values to appear. Refer to information at About Latest Weather Observations and please check the disclaimer before using these data.